sensor_id;sensor_type;location;lat;lon;timestamp;P1;durP1;ratioP1;P2;durP2;ratioP2
7239;SDS011;3661;53.288;10.458;2023-05-07T00:01:10;1280.70;;;999.90;;
7239;SDS011;3661;53.288;10.458;2023-05-07T00:03:42;1269.82;;;999.90;;
7239;SDS011;3661;53.288;10.458;2023-05-07T00:06:15;1255.43;;;999.90;;
7239;SDS011;3661;53.288;10.458;2023-05-07T00:08:48;1266.70;;;999.90;;
7239;SDS011;3661;53.288;10.458;2023-05-07T00:11:21;1271.68;;;999.90;;
7239;SDS011;3661;53.288;10.458;2023-05-07T00:13:54;1274.00;;;999.90;;
7239;SDS011;3661;53.288;10.458;2023-05-07T00:16:26;1289.63;;;999.90;;
7239;SDS011;3661;53.288;10.458;2023-05-07T00:18:58;1297.78;;;999.90;;
7239;SDS011;3661;53.288;10.458;2023-05-07T00:21:30;1261.00;;;999.90;;
7239;SDS011;3661;53.288;10.458;2023-05-07T00:24:04;1273.93;;;999.90;;
7239;SDS011;3661;53.288;10.458;2023-05-07T00:26:36;1249.95;;;999.90;;
7239;SDS011;3661;53.288;10.458;2023-05-07T00:29:08;1279.22;;;999.90;;
7239;SDS011;3661;53.288;10.458;2023-05-07T00:31:40;1293.47;;;999.90;;
7239;SDS011;3661;53.288;10.458;2023-05-07T00:34:16;1246.45;;;999.90;;
7239;SDS011;3661;53.288;10.458;2023-05-07T00:36:49;1234.32;;;999.90;;
7239;SDS011;3661;53.288;10.458;2023-05-07T00:39:23;1282.07;;;999.90;;
7239;SDS011;3661;53.288;10.458;2023-05-07T00:41:55;1279.18;;;999.90;;
7239;SDS011;3661;53.288;10.458;2023-05-07T00:44:27;1203.53;;;999.90;;
7239;SDS011;3661;53.288;10.458;2023-05-07T00:46:59;1234.55;;;999.90;;
7239;SDS011;3661;53.288;10.458;2023-05-07T00:49:36;1266.43;;;999.90;;
7239;SDS011;3661;53.288;10.458;2023-05-07T00:52:11;1244.25;;;999.90;;
7239;SDS011;3661;53.288;10.458;2023-05-07T00:54:47;1224.75;;;999.90;;
7239;SDS011;3661;53.288;10.458;2023-05-07T00:57:20;1232.50;;;999.90;;
7239;SDS011;3661;53.288;10.458;2023-05-07T00:59:53;1248.78;;;999.90;;
7239;SDS011;3661;53.288;10.458;2023-05-07T01:02:25;1257.20;;;999.90;;
7239;SDS011;3661;53.288;10.458;2023-05-07T01:04:57;1262.97;;;999.90;;
7239;SDS011;3661;53.288;10.458;2023-05-07T01:07:31;1264.28;;;999.90;;
7239;SDS011;3661;53.288;10.458;2023-05-07T01:10:06;1258.63;;;999.90;;
7239;SDS011;3661;53.288;10.458;2023-05-07T01:12:40;1219.73;;;999.90;;
7239;SDS011;3661;53.288;10.458;2023-05-07T01:15:14;1232.55;;;999.90;;
7239;SDS011;3661;53.288;10.458;2023-05-07T01:17:47;1189.97;;;999.90;;
7239;SDS011;3661;53.288;10.458;2023-05-07T01:20:19;1231.95;;;999.90;;
7239;SDS011;3661;53.288;10.458;2023-05-07T01:22:53;1277.47;;;999.90;;
7239;SDS011;3661;53.288;10.458;2023-05-07T01:25:28;1246.38;;;999.90;;
7239;SDS011;3661;53.288;10.458;2023-05-07T01:28:01;1208.47;;;999.90;;
7239;SDS011;3661;53.288;10.458;2023-05-07T01:30:33;1239.30;;;999.90;;
7239;SDS011;3661;53.288;10.458;2023-05-07T01:33:08;1199.60;;;999.90;;
7239;SDS011;3661;53.288;10.458;2023-05-07T01:35:43;1213.47;;;999.90;;
7239;SDS011;3661;53.288;10.458;2023-05-07T01:38:20;1231.53;;;999.90;;
7239;SDS011;3661;53.288;10.458;2023-05-07T01:40:53;1258.47;;;999.90;;
7239;SDS011;3661;53.288;10.458;2023-05-07T01:43:28;1251.30;;;999.90;;
7239;SDS011;3661;53.288;10.458;2023-05-07T01:46:01;1258.10;;;999.90;;
7239;SDS011;3661;53.288;10.458;2023-05-07T01:48:34;1215.32;;;999.90;;
7239;SDS011;3661;53.288;10.458;2023-05-07T01:51:08;1249.32;;;999.90;;
7239;SDS011;3661;53.288;10.458;2023-05-07T01:53:42;1252.80;;;999.90;;
7239;SDS011;3661;53.288;10.458;2023-05-07T01:56:15;1228.82;;;999.90;;
7239;SDS011;3661;53.288;10.458;2023-05-07T01:58:48;1235.70;;;999.90;;
7239;SDS011;3661;53.288;10.458;2023-05-07T02:01:22;1256.97;;;999.90;;
7239;SDS011;3661;53.288;10.458;2023-05-07T02:03:54;1254.85;;;999.90;;
7239;SDS011;3661;53.288;10.458;2023-05-07T02:06:26;1254.38;;;999.90;;
7239;SDS011;3661;53.288;10.458;2023-05-07T02:09:00;1252.72;;;999.90;;
7239;SDS011;3661;53.288;10.458;2023-05-07T02:11:36;1189.75;;;999.90;;
7239;SDS011;3661;53.288;10.458;2023-05-07T02:14:08;1195.20;;;999.90;;
7239;SDS011;3661;53.288;10.458;2023-05-07T02:16:40;1234.78;;;999.90;;
7239;SDS011;3661;53.288;10.458;2023-05-07T02:19:12;1229.97;;;999.90;;
7239;SDS011;3661;53.288;10.458;2023-05-07T02:21:45;1242.28;;;999.90;;
7239;SDS011;3661;53.288;10.458;2023-05-07T02:24:21;1264.10;;;999.90;;
7239;SDS011;3661;53.288;10.458;2023-05-07T02:26:55;1223.80;;;999.90;;
7239;SDS011;3661;53.288;10.458;2023-05-07T02:29:27;1201.78;;;999.90;;
7239;SDS011;3661;53.288;10.458;2023-05-07T02:31:59;1207.15;;;999.90;;
7239;SDS011;3661;53.288;10.458;2023-05-07T02:34:33;1226.55;;;999.90;;
7239;SDS011;3661;53.288;10.458;2023-05-07T02:37:05;1271.22;;;999.90;;
7239;SDS011;3661;53.288;10.458;2023-05-07T02:39:42;1222.47;;;999.90;;
7239;SDS011;3661;53.288;10.458;2023-05-07T02:42:18;1151.65;;;999.90;;
7239;SDS011;3661;53.288;10.458;2023-05-07T02:44:51;1215.53;;;999.90;;
7239;SDS011;3661;53.288;10.458;2023-05-07T02:47:23;1212.68;;;999.90;;
7239;SDS011;3661;53.288;10.458;2023-05-07T02:49:57;1278.15;;;999.90;;
7239;SDS011;3661;53.288;10.458;2023-05-07T02:52:29;1239.85;;;999.90;;
7239;SDS011;3661;53.288;10.458;2023-05-07T02:55:03;1248.17;;;999.90;;
7239;SDS011;3661;53.288;10.458;2023-05-07T02:57:36;1215.50;;;999.90;;
7239;SDS011;3661;53.288;10.458;2023-05-07T03:00:12;1225.57;;;999.90;;
7239;SDS011;3661;53.288;10.458;2023-05-07T03:02:45;1217.27;;;999.90;;
7239;SDS011;3661;53.288;10.458;2023-05-07T03:05:17;1196.63;;;999.90;;
7239;SDS011;3661;53.288;10.458;2023-05-07T03:07:52;1206.28;;;999.90;;
7239;SDS011;3661;53.288;10.458;2023-05-07T03:10:26;1237.75;;;999.90;;
7239;SDS011;3661;53.288;10.458;2023-05-07T03:12:58;1221.75;;;999.90;;
7239;SDS011;3661;53.288;10.458;2023-05-07T03:15:30;1223.43;;;999.90;;
7239;SDS011;3661;53.288;10.458;2023-05-07T03:18:04;1247.15;;;999.90;;
7239;SDS011;3661;53.288;10.458;2023-05-07T03:20:36;1275.53;;;999.90;;
7239;SDS011;3661;53.288;10.458;2023-05-07T03:23:09;1253.10;;;999.90;;
7239;SDS011;3661;53.288;10.458;2023-05-07T03:25:42;1257.75;;;999.90;;
7239;SDS011;3661;53.288;10.458;2023-05-07T03:28:14;1272.93;;;999.90;;
7239;SDS011;3661;53.288;10.458;2023-05-07T03:30:46;1268.70;;;999.90;;
7239;SDS011;3661;53.288;10.458;2023-05-07T03:33:18;1254.90;;;999.90;;
7239;SDS011;3661;53.288;10.458;2023-05-07T03:35:53;1233.57;;;999.90;;
7239;SDS011;3661;53.288;10.458;2023-05-07T03:38:27;1236.05;;;999.90;;
7239;SDS011;3661;53.288;10.458;2023-05-07T03:41:02;1237.50;;;999.90;;
7239;SDS011;3661;53.288;10.458;2023-05-07T03:43:35;1228.78;;;999.90;;
7239;SDS011;3661;53.288;10.458;2023-05-07T03:46:08;1237.50;;;999.90;;
7239;SDS011;3661;53.288;10.458;2023-05-07T03:48:43;1202.60;;;999.90;;
7239;SDS011;3661;53.288;10.458;2023-05-07T03:51:16;1217.95;;;999.90;;
7239;SDS011;3661;53.288;10.458;2023-05-07T03:53:48;1246.80;;;999.90;;
7239;SDS011;3661;53.288;10.458;2023-05-07T03:56:24;1226.38;;;999.90;;
7239;SDS011;3661;53.288;10.458;2023-05-07T03:58:57;1242.68;;;999.90;;
7239;SDS011;3661;53.288;10.458;2023-05-07T04:01:30;1252.72;;;999.90;;
7239;SDS011;3661;53.288;10.458;2023-05-07T04:04:02;1190.88;;;999.90;;
7239;SDS011;3661;53.288;10.458;2023-05-07T04:06:34;1229.60;;;999.90;;
7239;SDS011;3661;53.288;10.458;2023-05-07T04:09:08;1250.65;;;999.90;;
7239;SDS011;3661;53.288;10.458;2023-05-07T04:11:42;1201.55;;;999.90;;
7239;SDS011;3661;53.288;10.458;2023-05-07T04:14:14;1220.78;;;999.90;;
7239;SDS011;3661;53.288;10.458;2023-05-07T04:16:47;1253.35;;;999.90;;
7239;SDS011;3661;53.288;10.458;2023-05-07T04:19:19;1230.80;;;999.90;;
7239;SDS011;3661;53.288;10.458;2023-05-07T04:21:51;1271.73;;;999.90;;
7239;SDS011;3661;53.288;10.458;2023-05-07T04:24:23;1208.70;;;999.90;;
7239;SDS011;3661;53.288;10.458;2023-05-07T04:26:57;1210.68;;;999.90;;
7239;SDS011;3661;53.288;10.458;2023-05-07T04:29:30;1189.43;;;999.90;;
7239;SDS011;3661;53.288;10.458;2023-05-07T04:32:02;1272.22;;;999.90;;
7239;SDS011;3661;53.288;10.458;2023-05-07T04:34:36;1263.63;;;999.90;;
7239;SDS011;3661;53.288;10.458;2023-05-07T04:37:10;1208.30;;;999.90;;
7239;SDS011;3661;53.288;10.458;2023-05-07T04:39:44;1191.05;;;999.90;;
7239;SDS011;3661;53.288;10.458;2023-05-07T04:42:20;1180.87;;;999.90;;
7239;SDS011;3661;53.288;10.458;2023-05-07T04:44:52;1263.38;;;999.90;;
7239;SDS011;3661;53.288;10.458;2023-05-07T04:47:25;1199.40;;;999.90;;
7239;SDS011;3661;53.288;10.458;2023-05-07T04:49:57;1242.75;;;999.90;;
7239;SDS011;3661;53.288;10.458;2023-05-07T04:52:31;1216.25;;;999.90;;
7239;SDS011;3661;53.288;10.458;2023-05-07T04:55:04;1212.37;;;999.90;;
7239;SDS011;3661;53.288;10.458;2023-05-07T04:57:38;1165.50;;;999.90;;
7239;SDS011;3661;53.288;10.458;2023-05-07T05:00:11;1218.05;;;999.90;;
7239;SDS011;3661;53.288;10.458;2023-05-07T05:02:44;1243.03;;;999.90;;
7239;SDS011;3661;53.288;10.458;2023-05-07T05:05:16;1266.35;;;999.90;;
7239;SDS011;3661;53.288;10.458;2023-05-07T05:07:51;1271.32;;;999.90;;
7239;SDS011;3661;53.288;10.458;2023-05-07T05:10:24;1223.55;;;999.90;;
7239;SDS011;3661;53.288;10.458;2023-05-07T05:12:57;1242.75;;;999.90;;
7239;SDS011;3661;53.288;10.458;2023-05-07T05:15:29;1244.07;;;999.90;;
7239;SDS011;3661;53.288;10.458;2023-05-07T05:18:01;1284.82;;;999.90;;
7239;SDS011;3661;53.288;10.458;2023-05-07T05:20:34;1294.15;;;999.90;;
7239;SDS011;3661;53.288;10.458;2023-05-07T05:23:07;1213.50;;;999.90;;
7239;SDS011;3661;53.288;10.458;2023-05-07T05:25:39;1235.70;;;999.90;;
7239;SDS011;3661;53.288;10.458;2023-05-07T05:28:12;1240.55;;;999.90;;
7239;SDS011;3661;53.288;10.458;2023-05-07T05:30:44;1234.78;;;999.90;;
7239;SDS011;3661;53.288;10.458;2023-05-07T05:33:16;1235.72;;;999.90;;
7239;SDS011;3661;53.288;10.458;2023-05-07T05:35:49;1289.00;;;999.90;;
7239;SDS011;3661;53.288;10.458;2023-05-07T05:38:21;1221.10;;;999.90;;
7239;SDS011;3661;53.288;10.458;2023-05-07T05:40:53;1221.73;;;999.90;;
7239;SDS011;3661;53.288;10.458;2023-05-07T05:43:28;1277.40;;;999.90;;
7239;SDS011;3661;53.288;10.458;2023-05-07T05:46:00;1207.72;;;999.90;;
7239;SDS011;3661;53.288;10.458;2023-05-07T05:48:34;1244.70;;;999.90;;
7239;SDS011;3661;53.288;10.458;2023-05-07T05:51:06;1206.40;;;999.90;;
7239;SDS011;3661;53.288;10.458;2023-05-07T05:53:38;1251.73;;;999.90;;
7239;SDS011;3661;53.288;10.458;2023-05-07T05:56:10;1256.03;;;999.90;;
7239;SDS011;3661;53.288;10.458;2023-05-07T05:58:44;1219.65;;;999.90;;
7239;SDS011;3661;53.288;10.458;2023-05-07T06:01:17;1250.40;;;999.90;;
7239;SDS011;3661;53.288;10.458;2023-05-07T06:03:49;1212.95;;;999.90;;
7239;SDS011;3661;53.288;10.458;2023-05-07T06:06:21;1123.70;;;999.90;;
7239;SDS011;3661;53.288;10.458;2023-05-07T06:08:53;1240.70;;;999.90;;
7239;SDS011;3661;53.288;10.458;2023-05-07T06:11:25;1210.40;;;999.90;;
7239;SDS011;3661;53.288;10.458;2023-05-07T06:13:59;1230.03;;;999.90;;
7239;SDS011;3661;53.288;10.458;2023-05-07T06:16:31;1264.30;;;999.90;;
7239;SDS011;3661;53.288;10.458;2023-05-07T06:19:03;1237.87;;;999.90;;
7239;SDS011;3661;53.288;10.458;2023-05-07T06:21:35;1276.38;;;999.90;;
7239;SDS011;3661;53.288;10.458;2023-05-07T06:24:08;1242.85;;;999.90;;
7239;SDS011;3661;53.288;10.458;2023-05-07T06:26:40;1296.05;;;999.90;;
7239;SDS011;3661;53.288;10.458;2023-05-07T06:29:13;1250.88;;;999.90;;
7239;SDS011;3661;53.288;10.458;2023-05-07T06:31:48;1213.60;;;999.90;;
7239;SDS011;3661;53.288;10.458;2023-05-07T06:34:23;1198.30;;;999.90;;
7239;SDS011;3661;53.288;10.458;2023-05-07T06:36:55;1277.47;;;999.90;;
7239;SDS011;3661;53.288;10.458;2023-05-07T06:39:27;1265.70;;;999.90;;
7239;SDS011;3661;53.288;10.458;2023-05-07T06:41:59;1281.88;;;999.90;;
7239;SDS011;3661;53.288;10.458;2023-05-07T06:44:33;1273.75;;;999.90;;
7239;SDS011;3661;53.288;10.458;2023-05-07T06:47:05;1281.85;;;999.90;;
7239;SDS011;3661;53.288;10.458;2023-05-07T06:49:37;1245.40;;;999.90;;
7239;SDS011;3661;53.288;10.458;2023-05-07T06:52:09;1233.38;;;999.90;;
7239;SDS011;3661;53.288;10.458;2023-05-07T06:54:41;1264.70;;;999.90;;
7239;SDS011;3661;53.288;10.458;2023-05-07T06:57:13;1240.93;;;999.90;;
7239;SDS011;3661;53.288;10.458;2023-05-07T06:59:47;1253.25;;;999.90;;
7239;SDS011;3661;53.288;10.458;2023-05-07T07:02:19;1309.03;;;999.90;;
7239;SDS011;3661;53.288;10.458;2023-05-07T07:04:53;1323.45;;;999.90;;
7239;SDS011;3661;53.288;10.458;2023-05-07T07:07:25;1336.93;;;999.90;;
7239;SDS011;3661;53.288;10.458;2023-05-07T07:09:57;1313.85;;;999.90;;
7239;SDS011;3661;53.288;10.458;2023-05-07T07:12:29;1294.32;;;999.90;;
7239;SDS011;3661;53.288;10.458;2023-05-07T07:15:03;1248.50;;;999.90;;
7239;SDS011;3661;53.288;10.458;2023-05-07T07:17:36;1260.88;;;999.90;;
7239;SDS011;3661;53.288;10.458;2023-05-07T07:20:09;1330.75;;;999.90;;
7239;SDS011;3661;53.288;10.458;2023-05-07T07:22:41;1261.00;;;999.90;;
7239;SDS011;3661;53.288;10.458;2023-05-07T07:25:13;1284.53;;;999.90;;
7239;SDS011;3661;53.288;10.458;2023-05-07T07:27:45;1287.50;;;999.90;;
7239;SDS011;3661;53.288;10.458;2023-05-07T07:30:19;1316.65;;;999.90;;
7239;SDS011;3661;53.288;10.458;2023-05-07T07:32:51;1292.25;;;999.90;;
7239;SDS011;3661;53.288;10.458;2023-05-07T07:35:23;1347.72;;;999.90;;
7239;SDS011;3661;53.288;10.458;2023-05-07T07:37:57;1308.03;;;999.90;;
7239;SDS011;3661;53.288;10.458;2023-05-07T07:40:29;1295.32;;;999.90;;
7239;SDS011;3661;53.288;10.458;2023-05-07T07:43:01;1291.32;;;999.90;;
7239;SDS011;3661;53.288;10.458;2023-05-07T07:45:34;1304.85;;;999.90;;
7239;SDS011;3661;53.288;10.458;2023-05-07T07:48:06;1331.07;;;999.90;;
7239;SDS011;3661;53.288;10.458;2023-05-07T07:50:38;1370.53;;;999.90;;
7239;SDS011;3661;53.288;10.458;2023-05-07T07:53:10;1366.63;;;999.90;;
7239;SDS011;3661;53.288;10.458;2023-05-07T07:55:43;1331.82;;;999.90;;
7239;SDS011;3661;53.288;10.458;2023-05-07T07:58:15;1365.95;;;999.90;;
7239;SDS011;3661;53.288;10.458;2023-05-07T08:00:48;1379.53;;;999.90;;
7239;SDS011;3661;53.288;10.458;2023-05-07T08:03:21;1381.60;;;999.90;;
7239;SDS011;3661;53.288;10.458;2023-05-07T08:05:53;1376.10;;;999.90;;
7239;SDS011;3661;53.288;10.458;2023-05-07T08:08:25;1379.95;;;999.90;;
7239;SDS011;3661;53.288;10.458;2023-05-07T08:10:57;1364.72;;;999.90;;
7239;SDS011;3661;53.288;10.458;2023-05-07T08:13:29;1395.03;;;999.90;;
7239;SDS011;3661;53.288;10.458;2023-05-07T08:16:03;1393.10;;;999.90;;
7239;SDS011;3661;53.288;10.458;2023-05-07T08:18:35;1375.05;;;999.90;;
7239;SDS011;3661;53.288;10.458;2023-05-07T08:21:07;1377.07;;;999.90;;
7239;SDS011;3661;53.288;10.458;2023-05-07T08:23:39;1383.65;;;999.90;;
7239;SDS011;3661;53.288;10.458;2023-05-07T08:26:12;1400.38;;;999.90;;
7239;SDS011;3661;53.288;10.458;2023-05-07T08:28:44;1395.57;;;999.90;;
7239;SDS011;3661;53.288;10.458;2023-05-07T08:31:17;1376.95;;;999.90;;
7239;SDS011;3661;53.288;10.458;2023-05-07T08:33:49;1383.15;;;999.90;;
7239;SDS011;3661;53.288;10.458;2023-05-07T08:36:21;1418.40;;;999.90;;
7239;SDS011;3661;53.288;10.458;2023-05-07T08:38:53;1420.10;;;999.90;;
7239;SDS011;3661;53.288;10.458;2023-05-07T08:41:26;1433.57;;;999.90;;
7239;SDS011;3661;53.288;10.458;2023-05-07T08:43:58;1401.22;;;999.90;;
7239;SDS011;3661;53.288;10.458;2023-05-07T08:46:34;1397.57;;;999.90;;
7239;SDS011;3661;53.288;10.458;2023-05-07T08:49:12;1414.57;;;999.90;;
7239;SDS011;3661;53.288;10.458;2023-05-07T08:51:47;1432.63;;;999.90;;
7239;SDS011;3661;53.288;10.458;2023-05-07T08:54:19;1411.80;;;999.90;;
7239;SDS011;3661;53.288;10.458;2023-05-07T08:56:52;1415.45;;;999.90;;
7239;SDS011;3661;53.288;10.458;2023-05-07T08:59:24;1427.17;;;999.90;;
7239;SDS011;3661;53.288;10.458;2023-05-07T09:01:58;1420.18;;;999.90;;
7239;SDS011;3661;53.288;10.458;2023-05-07T09:04:30;1416.05;;;999.90;;
7239;SDS011;3661;53.288;10.458;2023-05-07T09:07:02;1427.18;;;999.90;;
7239;SDS011;3661;53.288;10.458;2023-05-07T09:09:35;1412.10;;;999.90;;
7239;SDS011;3661;53.288;10.458;2023-05-07T09:12:08;1416.47;;;999.90;;
7239;SDS011;3661;53.288;10.458;2023-05-07T09:14:40;1441.00;;;999.90;;
7239;SDS011;3661;53.288;10.458;2023-05-07T09:17:13;1423.32;;;999.90;;
7239;SDS011;3661;53.288;10.458;2023-05-07T09:19:46;1447.18;;;999.90;;
7239;SDS011;3661;53.288;10.458;2023-05-07T09:22:19;1444.47;;;999.90;;
7239;SDS011;3661;53.288;10.458;2023-05-07T09:24:51;1442.68;;;999.90;;
7239;SDS011;3661;53.288;10.458;2023-05-07T09:27:23;1460.20;;;999.90;;
7239;SDS011;3661;53.288;10.458;2023-05-07T09:29:56;1429.03;;;999.90;;
7239;SDS011;3661;53.288;10.458;2023-05-07T09:32:29;1470.82;;;999.90;;
7239;SDS011;3661;53.288;10.458;2023-05-07T09:35:04;1469.00;;;999.90;;
7239;SDS011;3661;53.288;10.458;2023-05-07T09:37:37;1467.43;;;999.90;;
7239;SDS011;3661;53.288;10.458;2023-05-07T09:40:19;1475.70;;;999.90;;
7239;SDS011;3661;53.288;10.458;2023-05-07T09:42:52;1471.00;;;999.90;;
7239;SDS011;3661;53.288;10.458;2023-05-07T09:45:24;1465.25;;;999.90;;
7239;SDS011;3661;53.288;10.458;2023-05-07T09:47:58;1473.47;;;999.90;;
7239;SDS011;3661;53.288;10.458;2023-05-07T09:50:32;1469.15;;;999.90;;
7239;SDS011;3661;53.288;10.458;2023-05-07T09:53:07;1477.75;;;999.90;;
7239;SDS011;3661;53.288;10.458;2023-05-07T09:55:41;1476.03;;;999.90;;
7239;SDS011;3661;53.288;10.458;2023-05-07T09:58:14;1487.47;;;999.90;;
7239;SDS011;3661;53.288;10.458;2023-05-07T10:00:47;1510.93;;;999.90;;
7239;SDS011;3661;53.288;10.458;2023-05-07T10:03:22;1520.93;;;999.90;;
7239;SDS011;3661;53.288;10.458;2023-05-07T10:05:57;1504.38;;;999.90;;
7239;SDS011;3661;53.288;10.458;2023-05-07T10:08:30;1496.10;;;999.90;;
7239;SDS011;3661;53.288;10.458;2023-05-07T10:11:03;1521.82;;;999.90;;
7239;SDS011;3661;53.288;10.458;2023-05-07T10:13:36;1515.20;;;999.90;;
7239;SDS011;3661;53.288;10.458;2023-05-07T10:16:08;1524.37;;;999.90;;
7239;SDS011;3661;53.288;10.458;2023-05-07T10:18:42;1520.10;;;999.90;;
7239;SDS011;3661;53.288;10.458;2023-05-07T10:21:15;1519.65;;;999.90;;
7239;SDS011;3661;53.288;10.458;2023-05-07T10:23:50;1525.13;;;999.90;;
7239;SDS011;3661;53.288;10.458;2023-05-07T10:26:29;1538.73;;;999.90;;
7239;SDS011;3661;53.288;10.458;2023-05-07T10:29:03;1543.90;;;999.90;;
7239;SDS011;3661;53.288;10.458;2023-05-07T10:31:47;1525.80;;;999.90;;
7239;SDS011;3661;53.288;10.458;2023-05-07T10:34:26;1551.45;;;999.90;;
7239;SDS011;3661;53.288;10.458;2023-05-07T10:37:01;1551.78;;;999.90;;
7239;SDS011;3661;53.288;10.458;2023-05-07T10:39:34;1563.15;;;999.90;;
7239;SDS011;3661;53.288;10.458;2023-05-07T10:42:07;1540.07;;;999.90;;
7239;SDS011;3661;53.288;10.458;2023-05-07T10:44:40;1540.80;;;999.90;;
7239;SDS011;3661;53.288;10.458;2023-05-07T10:47:12;1550.00;;;999.90;;
7239;SDS011;3661;53.288;10.458;2023-05-07T10:55:52;1557.78;;;999.90;;
7239;SDS011;3661;53.288;10.458;2023-05-07T11:02:04;1543.38;;;999.90;;
7239;SDS011;3661;53.288;10.458;2023-05-07T11:04:37;1543.80;;;999.90;;
7239;SDS011;3661;53.288;10.458;2023-05-07T11:10:02;1575.95;;;999.90;;
7239;SDS011;3661;53.288;10.458;2023-05-07T11:12:52;1568.10;;;999.90;;
7239;SDS011;3661;53.288;10.458;2023-05-07T11:18:21;1572.03;;;999.90;;
7239;SDS011;3661;53.288;10.458;2023-05-07T11:20:54;1580.10;;;999.90;;
7239;SDS011;3661;53.288;10.458;2023-05-07T11:26:45;1584.07;;;999.90;;
7239;SDS011;3661;53.288;10.458;2023-05-07T11:29:21;1598.57;;;999.90;;
7239;SDS011;3661;53.288;10.458;2023-05-07T11:31:53;1593.35;;;999.90;;
7239;SDS011;3661;53.288;10.458;2023-05-07T11:34:27;1603.13;;;999.90;;
7239;SDS011;3661;53.288;10.458;2023-05-07T11:36:59;1594.75;;;999.90;;
7239;SDS011;3661;53.288;10.458;2023-05-07T11:39:32;1607.32;;;999.90;;
7239;SDS011;3661;53.288;10.458;2023-05-07T11:42:06;1627.30;;;999.90;;
7239;SDS011;3661;53.288;10.458;2023-05-07T11:44:43;1627.80;;;999.90;;
7239;SDS011;3661;53.288;10.458;2023-05-07T11:47:19;1623.10;;;999.90;;
7239;SDS011;3661;53.288;10.458;2023-05-07T11:49:52;1617.93;;;999.90;;
7239;SDS011;3661;53.288;10.458;2023-05-07T11:52:25;1619.57;;;999.90;;
7239;SDS011;3661;53.288;10.458;2023-05-07T11:54:57;1633.50;;;999.90;;
7239;SDS011;3661;53.288;10.458;2023-05-07T11:57:32;1636.13;;;999.90;;
7239;SDS011;3661;53.288;10.458;2023-05-07T12:00:07;1668.72;;;999.90;;
7239;SDS011;3661;53.288;10.458;2023-05-07T12:02:40;1661.23;;;999.90;;
7239;SDS011;3661;53.288;10.458;2023-05-07T12:05:13;1679.13;;;999.90;;
7239;SDS011;3661;53.288;10.458;2023-05-07T12:07:45;1662.70;;;999.90;;
7239;SDS011;3661;53.288;10.458;2023-05-07T12:10:17;1698.72;;;999.90;;
7239;SDS011;3661;53.288;10.458;2023-05-07T12:12:50;1700.93;;;999.90;;
7239;SDS011;3661;53.288;10.458;2023-05-07T12:15:23;1692.55;;;999.90;;
7239;SDS011;3661;53.288;10.458;2023-05-07T12:17:55;1722.82;;;999.90;;
7239;SDS011;3661;53.288;10.458;2023-05-07T12:20:27;1739.38;;;999.90;;
7239;SDS011;3661;53.288;10.458;2023-05-07T12:23:00;1740.78;;;999.90;;
7239;SDS011;3661;53.288;10.458;2023-05-07T12:25:34;1729.50;;;999.90;;
7239;SDS011;3661;53.288;10.458;2023-05-07T12:28:07;1783.75;;;999.90;;
7239;SDS011;3661;53.288;10.458;2023-05-07T12:30:41;1783.73;;;999.90;;
7239;SDS011;3661;53.288;10.458;2023-05-07T12:33:16;1761.07;;;999.90;;
7239;SDS011;3661;53.288;10.458;2023-05-07T12:35:48;1793.75;;;999.90;;
7239;SDS011;3661;53.288;10.458;2023-05-07T12:38:20;1794.72;;;999.90;;
7239;SDS011;3661;53.288;10.458;2023-05-07T12:40:53;1786.47;;;999.90;;
7239;SDS011;3661;53.288;10.458;2023-05-07T12:43:27;1809.40;;;999.90;;
7239;SDS011;3661;53.288;10.458;2023-05-07T12:46:01;1800.70;;;999.90;;
7239;SDS011;3661;53.288;10.458;2023-05-07T12:48:36;1814.60;;;999.90;;
7239;SDS011;3661;53.288;10.458;2023-05-07T12:51:08;1797.00;;;999.90;;
7239;SDS011;3661;53.288;10.458;2023-05-07T12:53:42;1825.78;;;999.90;;
7239;SDS011;3661;53.288;10.458;2023-05-07T12:56:15;1813.07;;;999.90;;
7239;SDS011;3661;53.288;10.458;2023-05-07T12:58:48;1807.35;;;999.90;;
7239;SDS011;3661;53.288;10.458;2023-05-07T13:01:22;1827.97;;;999.90;;
7239;SDS011;3661;53.288;10.458;2023-05-07T13:04:00;1817.45;;;999.90;;
7239;SDS011;3661;53.288;10.458;2023-05-07T13:06:35;1817.55;;;999.90;;
7239;SDS011;3661;53.288;10.458;2023-05-07T13:09:07;1816.20;;;999.90;;
7239;SDS011;3661;53.288;10.458;2023-05-07T13:11:39;1815.65;;;999.90;;
7239;SDS011;3661;53.288;10.458;2023-05-07T13:14:11;1834.57;;;999.90;;
7239;SDS011;3661;53.288;10.458;2023-05-07T13:16:45;1817.88;;;999.90;;
7239;SDS011;3661;53.288;10.458;2023-05-07T13:19:17;1835.05;;;999.90;;
7239;SDS011;3661;53.288;10.458;2023-05-07T13:21:49;1839.35;;;999.90;;
7239;SDS011;3661;53.288;10.458;2023-05-07T13:24:21;1844.28;;;999.90;;
7239;SDS011;3661;53.288;10.458;2023-05-07T13:26:53;1827.90;;;999.90;;
7239;SDS011;3661;53.288;10.458;2023-05-07T13:29:26;1850.00;;;999.90;;
7239;SDS011;3661;53.288;10.458;2023-05-07T13:32:01;1864.57;;;999.90;;
7239;SDS011;3661;53.288;10.458;2023-05-07T13:34:33;1852.35;;;999.90;;
7239;SDS011;3661;53.288;10.458;2023-05-07T13:37:07;1838.95;;;999.90;;
7239;SDS011;3661;53.288;10.458;2023-05-07T13:39:39;1850.60;;;999.90;;
7239;SDS011;3661;53.288;10.458;2023-05-07T13:42:11;1837.78;;;999.90;;
7239;SDS011;3661;53.288;10.458;2023-05-07T13:44:43;1858.50;;;999.90;;
7239;SDS011;3661;53.288;10.458;2023-05-07T13:47:16;1864.20;;;999.90;;
7239;SDS011;3661;53.288;10.458;2023-05-07T13:49:48;1870.90;;;999.90;;
7239;SDS011;3661;53.288;10.458;2023-05-07T13:52:21;1857.77;;;999.90;;
7239;SDS011;3661;53.288;10.458;2023-05-07T13:54:53;1895.40;;;999.90;;
7239;SDS011;3661;53.288;10.458;2023-05-07T13:57:25;1868.82;;;999.90;;
7239;SDS011;3661;53.288;10.458;2023-05-07T13:59:57;1867.18;;;999.90;;
7239;SDS011;3661;53.288;10.458;2023-05-07T14:02:30;1880.40;;;999.90;;
7239;SDS011;3661;53.288;10.458;2023-05-07T14:05:03;1903.13;;;999.90;;
7239;SDS011;3661;53.288;10.458;2023-05-07T14:07:35;1896.32;;;999.90;;
7239;SDS011;3661;53.288;10.458;2023-05-07T14:10:08;1891.43;;;999.90;;
7239;SDS011;3661;53.288;10.458;2023-05-07T14:12:41;1900.83;;;999.90;;
7239;SDS011;3661;53.288;10.458;2023-05-07T14:15:13;1910.38;;;999.90;;
7239;SDS011;3661;53.288;10.458;2023-05-07T14:17:47;1914.80;;;999.90;;
7239;SDS011;3661;53.288;10.458;2023-05-07T14:20:22;1918.20;;;999.90;;
7239;SDS011;3661;53.288;10.458;2023-05-07T14:22:54;1906.47;;;999.90;;
7239;SDS011;3661;53.288;10.458;2023-05-07T14:25:26;1946.80;;;999.90;;
7239;SDS011;3661;53.288;10.458;2023-05-07T14:27:58;1935.78;;;999.90;;
7239;SDS011;3661;53.288;10.458;2023-05-07T14:30:30;1947.88;;;999.90;;
7239;SDS011;3661;53.288;10.458;2023-05-07T14:33:04;1933.78;;;999.90;;
7239;SDS011;3661;53.288;10.458;2023-05-07T14:35:36;1943.43;;;999.90;;
7239;SDS011;3661;53.288;10.458;2023-05-07T14:38:08;1941.00;;;999.90;;
7239;SDS011;3661;53.288;10.458;2023-05-07T14:40:40;1950.82;;;999.90;;
7239;SDS011;3661;53.288;10.458;2023-05-07T14:43:12;1958.15;;;999.90;;
7239;SDS011;3661;53.288;10.458;2023-05-07T14:45:44;1973.40;;;999.90;;
7239;SDS011;3661;53.288;10.458;2023-05-07T14:48:18;1953.93;;;999.90;;